Time;durP1;ratioP1;P1;durP2;ratioP2;P2;SDS_P1;SDS_P2;PMS_P1;PMS_P2;Temp;Humidity;BMP_temperature;BMP_pressure;BME280_temperature;BME280_humidity;BME280_pressure;Samples;Min_cycle;Max_cycle;Signal;HPM_P1;HPM_P2
2021/01/22 00:01:48;;;;;;;;;;;29.40;31.90;;;;;;5074490;28;19923;-49
2021/01/22 00:04:14;;;;;;;;;;;29.30;32.30;;;;;;5091789;28;20362;-50
2021/01/22 00:06:39;;;;;;;;;;;29.30;32.40;;;;;;5090943;28;19912;-53
2021/01/22 00:09:05;;;;;;;;;;;29.30;32.20;;;;;;5073038;28;19909;-52
2021/01/22 00:11:30;;;;;;;;;;;29.20;32.00;;;;;;5090882;28;19973;-52
2021/01/22 00:13:56;;;;;;;;;;;29.30;32.00;;;;;;5083237;28;19963;-53
2021/01/22 00:16:21;;;;;;;;;;;29.30;31.90;;;;;;5086370;28;19916;-54
2021/01/22 00:18:47;;;;;;;;;;;29.30;31.80;;;;;;5077728;28;20346;-54
2021/01/22 00:21:12;;;;;;;;;;;29.30;31.80;;;;;;5073241;28;19913;-49
2021/01/22 00:23:38;;;;;;;;;;;29.30;31.80;;;;;;5073080;28;20346;-51
2021/01/22 00:26:06;;;;;;;;;;;29.30;31.80;;;;;;5072737;28;19912;-51
2021/01/22 00:28:32;;;;;;;;;;;29.30;31.80;;;;;;5088031;28;20010;-50
2021/01/22 00:30:57;;;;;;;;;;;29.30;31.80;;;;;;5091137;28;20015;-52
2021/01/22 00:33:23;;;;;;;;;;;29.30;31.70;;;;;;5074118;28;19974;-53
2021/01/22 00:35:49;;;;;;;;;;;29.30;31.80;;;;;;5072887;28;19965;-51
2021/01/22 00:38:14;;;;;;;;;;;29.30;31.80;;;;;;5085916;28;20365;-50
2021/01/22 00:40:39;;;;;;;;;;;29.30;31.70;;;;;;5091217;28;19912;-52
2021/01/22 00:43:05;;;;;;;;;;;29.30;31.80;;;;;;5084059;28;19920;-54
2021/01/22 00:45:31;;;;;;;;;;;29.30;31.80;;;;;;5093007;28;19908;-53
2021/01/22 00:47:56;;;;;;;;;;;29.30;31.70;;;;;;5090990;28;19916;-49
2021/01/22 00:50:21;;;;;;;;;;;29.30;31.80;;;;;;5081877;28;20366;-54
2021/01/22 00:52:47;;;;;;;;;;;29.20;31.60;;;;;;5072601;28;20030;-53
2021/01/22 00:55:12;;;;;;;;;;;29.20;31.70;;;;;;5072815;28;19919;-51
2021/01/22 00:57:38;;;;;;;;;;;29.30;31.70;;;;;;5080926;28;19916;-49
2021/01/22 01:00:04;;;;;;;;;;;29.20;31.60;;;;;;5096690;28;19908;-53
2021/01/22 01:02:30;;;;;;;;;;;29.20;31.70;;;;;;5095082;28;20365;-50
2021/01/22 01:04:55;;;;;;;;;;;29.20;31.70;;;;;;5089336;28;19958;-52
2021/01/22 01:07:21;;;;;;;;;;;29.20;31.50;;;;;;5096841;28;19958;-52
2021/01/22 01:09:46;;;;;;;;;;;29.20;31.60;;;;;;5096031;28;19915;-55
2021/01/22 01:12:12;;;;;;;;;;;29.20;31.50;;;;;;5095191;28;19927;-50
2021/01/22 01:14:37;;;;;;;;;;;29.20;31.40;;;;;;5077760;28;19916;-51
2021/01/22 01:17:03;;;;;;;;;;;29.20;31.50;;;;;;5087837;28;20007;-53
2021/01/22 01:19:28;;;;;;;;;;;29.20;31.50;;;;;;5085325;28;19930;-51
2021/01/22 01:21:53;;;;;;;;;;;29.20;32.10;;;;;;5076415;28;19959;-50
2021/01/22 01:24:19;;;;;;;;;;;29.20;31.60;;;;;;5076506;28;19908;-54
2021/01/22 01:26:44;;;;;;;;;;;29.20;31.50;;;;;;5076895;28;19913;-57
2021/01/22 01:29:10;;;;;;;;;;;29.20;31.50;;;;;;5094342;28;20417;-54
2021/01/22 01:31:35;;;;;;;;;;;29.20;31.40;;;;;;5096269;28;19924;-51
2021/01/22 01:34:01;;;;;;;;;;;29.20;31.30;;;;;;5096399;28;19912;-51
2021/01/22 01:36:26;;;;;;;;;;;29.20;31.40;;;;;;5081852;28;19915;-50
2021/01/22 01:38:52;;;;;;;;;;;29.20;31.30;;;;;;5075853;28;20287;-53
2021/01/22 01:41:17;;;;;;;;;;;29.20;31.30;;;;;;5081959;28;20315;-53
2021/01/22 01:43:43;;;;;;;;;;;29.20;31.20;;;;;;5080260;28;19916;-55
2021/01/22 01:46:08;;;;;;;;;;;29.20;31.30;;;;;;5075653;28;19962;-52
2021/01/22 01:48:34;;;;;;;;;;;29.20;31.20;;;;;;5075882;28;19915;-52
2021/01/22 01:50:59;;;;;;;;;;;29.20;31.30;;;;;;5058819;28;19924;-55
2021/01/22 01:53:25;;;;;;;;;;;29.20;31.20;;;;;;5076128;28;19912;-52
2021/01/22 01:55:51;;;;;;;;;;;29.20;31.00;;;;;;5060081;28;19912;-51
2021/01/22 01:58:16;;;;;;;;;;;29.20;31.10;;;;;;5088786;28;19947;-50
2021/01/22 02:00:42;;;;;;;;;;;29.10;31.00;;;;;;5088021;28;19912;-54
2021/01/22 02:03:07;;;;;;;;;;;29.10;31.00;;;;;;5077724;28;19908;-50
2021/01/22 02:05:33;;;;;;;;;;;29.20;31.20;;;;;;5078926;28;19916;-50
2021/01/22 02:07:58;;;;;;;;;;;29.20;31.20;;;;;;5092380;28;19926;-51
2021/01/22 02:10:24;;;;;;;;;;;29.20;31.30;;;;;;5069042;28;19927;-51
2021/01/22 02:12:50;;;;;;;;;;;29.20;31.20;;;;;;5062162;28;19913;-52
2021/01/22 02:15:15;;;;;;;;;;;29.20;31.20;;;;;;5057602;28;19955;-51
2021/01/22 02:17:44;;;;;;;;;;;29.10;31.20;;;;;;5057133;28;19908;-53
2021/01/22 02:20:09;;;;;;;;;;;29.10;31.30;;;;;;5079644;28;19917;-54
2021/01/22 02:22:35;;;;;;;;;;;29.10;31.30;;;;;;5095365;28;19912;-54
2021/01/22 02:25:01;;;;;;;;;;;29.10;31.20;;;;;;5077321;28;20419;-52
2021/01/22 02:27:26;;;;;;;;;;;29.10;31.20;;;;;;5070545;28;19908;-54
2021/01/22 02:29:52;;;;;;;;;;;29.10;31.20;;;;;;5075858;28;19920;-52
2021/01/22 02:32:17;;;;;;;;;;;29.10;31.20;;;;;;5061986;28;20009;-52
2021/01/22 02:34:42;;;;;;;;;;;29.10;31.30;;;;;;5067147;28;19965;-50
2021/01/22 02:37:10;;;;;;;;;;;29.10;31.90;;;;;;5085908;28;20282;-52
2021/01/22 02:39:36;;;;;;;;;;;29.10;31.40;;;;;;5074849;28;19908;-52
2021/01/22 02:42:02;;;;;;;;;;;29.10;31.20;;;;;;5060289;28;20477;-51
2021/01/22 02:44:29;;;;;;;;;;;29.10;31.30;;;;;;5079778;28;19912;-52
2021/01/22 02:46:54;;;;;;;;;;;29.10;31.30;;;;;;5076567;28;19908;-53
2021/01/22 02:49:19;;;;;;;;;;;29.10;31.50;;;;;;5057400;28;19924;-53
2021/01/22 02:51:46;;;;;;;;;;;29.10;31.30;;;;;;5075692;28;20443;-53
2021/01/22 02:54:11;;;;;;;;;;;29.10;31.30;;;;;;5087483;28;19912;-55
2021/01/22 02:56:40;;;;;;;;;;;29.10;31.30;;;;;;5094516;28;19914;-56
2021/01/22 02:59:08;;;;;;;;;;;29.10;31.30;;;;;;5063348;28;19951;-53
2021/01/22 03:01:34;;;;;;;;;;;29.10;31.60;;;;;;5074677;28;19916;-54
2021/01/22 03:04:04;;;;;;;;;;;29.10;31.50;;;;;;5075810;28;19916;-54
2021/01/22 03:06:32;;;;;;;;;;;29.10;31.60;;;;;;5076505;28;20423;-54
2021/01/22 03:08:57;;;;;;;;;;;29.10;31.60;;;;;;5075299;28;19912;-53
2021/01/22 03:11:23;;;;;;;;;;;29.10;31.70;;;;;;5086806;28;19920;-51
2021/01/22 03:13:49;;;;;;;;;;;29.10;31.80;;;;;;5071029;28;20339;-50
2021/01/22 03:16:15;;;;;;;;;;;29.10;31.60;;;;;;5093474;28;19915;-50
2021/01/22 03:18:52;;;;;;;;;;;29.10;31.50;;;;;;5056493;28;19928;-49
2021/01/22 03:21:18;;;;;;;;;;;29.10;31.40;;;;;;5056859;28;19913;-53
2021/01/22 03:23:43;;;;;;;;;;;29.10;31.50;;;;;;5074230;28;19908;-52
2021/01/22 03:26:09;;;;;;;;;;;29.10;31.70;;;;;;5074126;28;20267;-53
2021/01/22 03:28:34;;;;;;;;;;;29.10;31.50;;;;;;5089881;28;20290;-54
2021/01/22 03:31:00;;;;;;;;;;;29.10;31.70;;;;;;5093989;28;19919;-54
2021/01/22 03:33:25;;;;;;;;;;;29.10;31.60;;;;;;5087222;28;19916;-55
2021/01/22 03:35:51;;;;;;;;;;;29.00;31.80;;;;;;5093870;28;19908;-54
2021/01/22 03:38:16;;;;;;;;;;;29.10;31.80;;;;;;5080310;28;19974;-51
2021/01/22 03:40:42;;;;;;;;;;;29.10;31.70;;;;;;5080406;28;19919;-53
2021/01/22 03:43:07;;;;;;;;;;;29.00;31.70;;;;;;5092745;28;19991;-52
2021/01/22 03:45:32;;;;;;;;;;;29.10;31.70;;;;;;5087426;28;20411;-52
2021/01/22 03:47:58;;;;;;;;;;;29.10;31.80;;;;;;5082174;28;19920;-52
2021/01/22 03:50:23;;;;;;;;;;;29.00;31.50;;;;;;5073326;28;19974;-55
2021/01/22 03:52:49;;;;;;;;;;;29.00;31.40;;;;;;5073304;28;19978;-55
2021/01/22 03:55:14;;;;;;;;;;;29.00;31.40;;;;;;5073550;28;19912;-50
2021/01/22 03:57:40;;;;;;;;;;;29.10;31.50;;;;;;5074544;28;20405;-52
2021/01/22 04:00:05;;;;;;;;;;;29.00;31.10;;;;;;5073456;28;19939;-53
2021/01/22 04:02:31;;;;;;;;;;;29.00;31.50;;;;;;5085777;28;19969;-54
2021/01/22 04:04:56;;;;;;;;;;;29.00;31.20;;;;;;5093649;28;19934;-53
2021/01/22 04:07:22;;;;;;;;;;;29.00;31.20;;;;;;5087236;28;20354;-55
2021/01/22 04:09:47;;;;;;;;;;;29.00;31.20;;;;;;5072971;28;20003;-57
2021/01/22 04:12:13;;;;;;;;;;;29.00;31.30;;;;;;5087710;28;19924;-51
2021/01/22 04:14:38;;;;;;;;;;;29.00;31.30;;;;;;5080827;28;20280;-53
2021/01/22 04:17:03;;;;;;;;;;;29.00;31.20;;;;;;5086634;28;19919;-50
2021/01/22 04:19:29;;;;;;;;;;;29.00;31.30;;;;;;5075738;28;19916;-53
2021/01/22 04:21:55;;;;;;;;;;;29.00;31.30;;;;;;5074160;28;20255;-52
2021/01/22 04:24:20;;;;;;;;;;;29.00;31.30;;;;;;5072808;28;20665;-53
2021/01/22 04:26:47;;;;;;;;;;;29.00;31.50;;;;;;5074140;28;19913;-53
2021/01/22 04:29:13;;;;;;;;;;;29.00;31.20;;;;;;5093099;28;19920;-50
2021/01/22 04:31:39;;;;;;;;;;;29.00;31.50;;;;;;5078746;28;20320;-51
2021/01/22 04:34:04;;;;;;;;;;;29.00;31.50;;;;;;5092329;28;20370;-55
2021/01/22 04:36:30;;;;;;;;;;;29.00;31.60;;;;;;5093281;28;19968;-55
2021/01/22 04:38:55;;;;;;;;;;;29.00;31.20;;;;;;5073661;28;19916;-51
2021/01/22 04:41:20;;;;;;;;;;;29.00;31.60;;;;;;5084747;28;19918;-53
2021/01/22 04:43:46;;;;;;;;;;;29.00;31.50;;;;;;5074861;28;19923;-54
2021/01/22 04:46:11;;;;;;;;;;;29.00;31.70;;;;;;5092978;28;19919;-53
2021/01/22 04:48:40;;;;;;;;;;;29.00;31.30;;;;;;5089085;28;20324;-52
2021/01/22 04:51:05;;;;;;;;;;;29.00;31.70;;;;;;5064652;28;20449;-55
2021/01/22 04:53:31;;;;;;;;;;;29.00;31.60;;;;;;5092701;28;19998;-53
2021/01/22 04:55:56;;;;;;;;;;;29.00;31.70;;;;;;5092597;28;19916;-55
2021/01/22 04:58:22;;;;;;;;;;;29.00;31.70;;;;;;5084723;28;19951;-54
2021/01/22 05:00:47;;;;;;;;;;;29.00;31.70;;;;;;5074948;28;20327;-54
2021/01/22 05:03:13;;;;;;;;;;;29.00;31.60;;;;;;5061398;28;19966;-58
2021/01/22 05:05:39;;;;;;;;;;;29.00;31.60;;;;;;5072369;28;20625;-53
2021/01/22 05:08:04;;;;;;;;;;;29.00;31.70;;;;;;5066169;28;19916;-53
2021/01/22 05:10:30;;;;;;;;;;;29.00;31.60;;;;;;5087611;28;20286;-52
2021/01/22 05:12:55;;;;;;;;;;;29.00;31.30;;;;;;5073047;28;19908;-51
2021/01/22 05:15:24;;;;;;;;;;;28.90;31.50;;;;;;5084683;28;19999;-52
2021/01/22 05:18:18;;;;;;;;;;;29.00;31.50;;;;;;5092767;28;19912;-53
2021/01/22 05:20:45;;;;;;;;;;;29.00;31.50;;;;;;5063527;28;20342;-51
2021/01/22 05:23:11;;;;;;;;;;;28.90;31.70;;;;;;5088319;28;19935;-54
2021/01/22 05:25:56;;;;;;;;;;;29.00;31.60;;;;;;5076293;28;20366;-49
2021/01/22 05:28:34;;;;;;;;;;;28.90;31.70;;;;;;5074719;28;20301;-53
2021/01/22 05:30:59;;;;;;;;;;;28.90;31.70;;;;;;5092879;28;19924;-55
2021/01/22 05:33:26;;;;;;;;;;;29.00;31.70;;;;;;5092251;28;19908;-55
2021/01/22 05:35:51;;;;;;;;;;;28.90;31.70;;;;;;5074321;28;20362;-55
2021/01/22 05:38:17;;;;;;;;;;;29.00;31.80;;;;;;5078490;28;19915;-54
2021/01/22 05:40:49;;;;;;;;;;;29.00;31.80;;;;;;5090444;28;19922;-54
2021/01/22 05:43:15;;;;;;;;;;;29.00;31.90;;;;;;5078726;28;19908;-54
2021/01/22 05:45:44;;;;;;;;;;;29.00;31.70;;;;;;5091581;28;19919;-54
2021/01/22 05:48:22;;;;;;;;;;;29.00;31.80;;;;;;5096168;28;19966;-50
2021/01/22 05:50:51;;;;;;;;;;;29.00;31.80;;;;;;5084985;28;20034;-53
2021/01/22 05:53:17;;;;;;;;;;;28.90;31.30;;;;;;5076332;28;20219;-52
2021/01/22 05:55:43;;;;;;;;;;;29.00;31.80;;;;;;5075808;28;20033;-52
2021/01/22 05:58:08;;;;;;;;;;;29.00;32.10;;;;;;5069966;28;19912;-52
2021/01/22 06:00:34;;;;;;;;;;;28.90;31.50;;;;;;5091620;28;19919;-54
2021/01/22 06:02:59;;;;;;;;;;;29.00;31.60;;;;;;5075745;28;19918;-54
2021/01/22 06:05:26;;;;;;;;;;;29.00;31.50;;;;;;5079956;28;19912;-50
2021/01/22 06:08:04;;;;;;;;;;;28.90;31.20;;;;;;5085276;28;19915;-52
2021/01/22 06:10:29;;;;;;;;;;;28.90;31.50;;;;;;5075232;28;20359;-55
2021/01/22 06:12:55;;;;;;;;;;;28.90;31.40;;;;;;5060182;28;19991;-52
2021/01/22 06:15:21;;;;;;;;;;;28.90;31.60;;;;;;5083788;28;19982;-50
2021/01/22 06:17:47;;;;;;;;;;;28.90;31.40;;;;;;5077936;28;19909;-55
2021/01/22 06:20:16;;;;;;;;;;;28.90;31.40;;;;;;5085798;28;20281;-55
2021/01/22 06:22:45;;;;;;;;;;;28.90;31.50;;;;;;5084136;28;19913;-54
2021/01/22 06:25:11;;;;;;;;;;;28.90;31.50;;;;;;5095304;28;20353;-53
2021/01/22 06:27:36;;;;;;;;;;;28.90;31.60;;;;;;5095455;28;19953;-54
2021/01/22 06:30:02;;;;;;;;;;;28.90;31.40;;;;;;5093836;28;19924;-57
2021/01/22 06:32:28;;;;;;;;;;;28.90;31.50;;;;;;5083551;28;20011;-53
2021/01/22 06:34:54;;;;;;;;;;;28.90;31.40;;;;;;5095378;28;19908;-53
2021/01/22 06:37:19;;;;;;;;;;;29.00;31.70;;;;;;5083877;28;20014;-56
2021/01/22 06:39:44;;;;;;;;;;;29.00;31.70;;;;;;5056828;28;19909;-57
2021/01/22 06:42:10;;;;;;;;;;;29.00;31.70;;;;;;5056829;28;19909;-53
2021/01/22 06:44:35;;;;;;;;;;;29.00;31.60;;;;;;5074941;28;20001;-51
2021/01/22 06:47:09;;;;;;;;;;;29.00;31.60;;;;;;5057420;28;19932;-56
2021/01/22 06:49:35;;;;;;;;;;;29.00;31.50;;;;;;5075001;28;19982;-54
2021/01/22 06:52:10;;;;;;;;;;;29.00;31.50;;;;;;5086103;28;20385;-54
2021/01/22 06:54:56;;;;;;;;;;;29.00;31.60;;;;;;5080584;28;19913;-52
2021/01/22 06:57:21;;;;;;;;;;;29.00;31.50;;;;;;5093838;28;19919;-58
2021/01/22 06:59:47;;;;;;;;;;;28.90;31.50;;;;;;5094586;28;19912;-53
2021/01/22 07:02:42;;;;;;;;;;;28.90;31.50;;;;;;5090629;28;19916;-55
2021/01/22 07:05:22;;;;;;;;;;;28.90;31.50;;;;;;5056790;28;19951;-53
2021/01/22 07:07:48;;;;;;;;;;;28.90;31.50;;;;;;5083791;28;19912;-55
2021/01/22 07:10:13;;;;;;;;;;;28.90;31.60;;;;;;5080541;28;20301;-55
2021/01/22 07:12:42;;;;;;;;;;;28.90;31.60;;;;;;5082356;28;19920;-55
2021/01/22 07:15:20;;;;;;;;;;;29.00;31.50;;;;;;5083163;28;19962;-57
2021/01/22 07:17:48;;;;;;;;;;;28.90;31.40;;;;;;5090845;28;20293;-53
2021/01/22 07:20:14;;;;;;;;;;;29.00;31.50;;;;;;5094333;28;19920;-57
2021/01/22 07:22:52;;;;;;;;;;;28.90;31.50;;;;;;5083529;28;19919;-51
2021/01/22 07:25:28;;;;;;;;;;;29.00;31.50;;;;;;5085250;28;20324;-55
2021/01/22 07:27:53;;;;;;;;;;;28.90;31.30;;;;;;5073881;28;19913;-53
2021/01/22 07:30:19;;;;;;;;;;;29.00;31.50;;;;;;5074143;28;20160;-57
2021/01/22 07:32:45;;;;;;;;;;;29.00;31.50;;;;;;5082791;28;20424;-56
2021/01/22 07:35:23;;;;;;;;;;;29.00;31.50;;;;;;5093499;28;20293;-53
2021/01/22 07:37:49;;;;;;;;;;;29.00;31.50;;;;;;5084055;28;20011;-53
2021/01/22 07:40:14;;;;;;;;;;;29.00;31.50;;;;;;5073952;28;19994;-54
2021/01/22 07:42:40;;;;;;;;;;;29.00;31.50;;;;;;5081621;28;19920;-53
2021/01/22 07:45:06;;;;;;;;;;;28.90;28.40;;;;;;5077957;28;19944;-54
2021/01/22 07:47:32;;;;;;;;;;;28.70;27.60;;;;;;5073627;28;20427;-52
2021/01/22 07:49:59;;;;;;;;;;;28.50;26.30;;;;;;5073366;28;19909;-53
2021/01/22 07:52:25;;;;;;;;;;;28.20;25.80;;;;;;5077973;28;19942;-53
2021/01/22 07:54:51;;;;;;;;;;;28.10;26.80;;;;;;5073614;28;19916;-61
2021/01/22 07:57:17;;;;;;;;;;;28.20;27.60;;;;;;5090926;28;19912;-63
2021/01/22 07:59:43;;;;;;;;;;;28.30;27.80;;;;;;5092793;28;19912;-61
2021/01/22 08:02:12;;;;;;;;;;;28.30;28.40;;;;;;5087721;28;19908;-65
2021/01/22 08:04:38;;;;;;;;;;;28.40;28.50;;;;;;5085165;28;19912;-70
2021/01/22 08:07:03;;;;;;;;;;;28.50;28.50;;;;;;5074225;28;19909;-68
2021/01/22 08:09:29;;;;;;;;;;;28.60;28.70;;;;;;5072321;28;19924;-64
2021/01/22 08:12:05;;;;;;;;;;;28.70;28.80;;;;;;5074973;28;19924;-70
2021/01/22 08:14:31;;;;;;;;;;;28.80;28.90;;;;;;5085181;28;20019;-66
2021/01/22 08:16:56;;;;;;;;;;;28.90;29.10;;;;;;5073347;28;20009;-65
2021/01/22 08:19:25;;;;;;;;;;;29.00;29.00;;;;;;5073182;28;20368;-64
2021/01/22 08:21:50;;;;;;;;;;;29.00;29.30;;;;;;5088420;28;20357;-63
2021/01/22 08:24:16;;;;;;;;;;;29.10;29.30;;;;;;5054954;28;19917;-68
2021/01/22 08:26:41;;;;;;;;;;;29.10;29.50;;;;;;5078487;28;19908;-70
2021/01/22 08:29:08;;;;;;;;;;;29.20;29.60;;;;;;5092968;28;19978;-67
2021/01/22 08:31:34;;;;;;;;;;;29.20;29.70;;;;;;5073047;28;20090;-65
2021/01/22 08:34:00;;;;;;;;;;;29.20;29.80;;;;;;5069402;28;19987;-62
2021/01/22 08:36:26;;;;;;;;;;;29.20;30.00;;;;;;5068934;28;20319;-65
2021/01/22 08:38:58;;;;;;;;;;;29.20;30.00;;;;;;5075208;28;19912;-64
2021/01/22 08:41:24;;;;;;;;;;;29.30;30.00;;;;;;5092859;28;19915;-67
2021/01/22 08:43:50;;;;;;;;;;;29.30;30.00;;;;;;5087855;28;20431;-72
2021/01/22 08:46:15;;;;;;;;;;;29.30;30.20;;;;;;5075344;28;19913;-70
2021/01/22 08:48:41;;;;;;;;;;;29.30;30.20;;;;;;5054475;28;20326;-73
2021/01/22 08:51:06;;;;;;;;;;;29.30;29.00;;;;;;5072815;28;20011;-60
2021/01/22 08:53:32;;;;;;;;;;;28.80;27.70;;;;;;5073126;28;19969;-76
2021/01/22 08:56:13;;;;;;;;;;;28.70;29.40;;;;;;5072586;28;19977;-63
2021/01/22 08:58:57;;;;;;;;;;;28.70;29.50;;;;;;5073595;28;19971;-64
2021/01/22 09:01:23;;;;;;;;;;;29.00;29.70;;;;;;5073723;28;19913;-63
2021/01/22 09:03:49;;;;;;;;;;;29.20;29.80;;;;;;5067947;28;20434;-63
2021/01/22 09:06:14;;;;;;;;;;;29.40;29.90;;;;;;5084559;28;19990;-62
2021/01/22 09:08:53;;;;;;;;;;;29.50;30.00;;;;;;5074638;28;19919;-62
2021/01/22 09:11:37;;;;;;;;;;;29.70;30.30;;;;;;5088485;28;19920;-64
2021/01/22 09:14:02;;;;;;;;;;;29.70;30.70;;;;;;5082250;28;19986;-63
2021/01/22 09:16:28;;;;;;;;;;;29.80;31.00;;;;;;5072700;28;19955;-63
2021/01/22 09:18:59;;;;;;;;;;;29.80;31.20;;;;;;5091120;28;20357;-61
2021/01/22 09:21:25;;;;;;;;;;;29.90;31.30;;;;;;5095225;28;19916;-60
2021/01/22 09:23:50;;;;;;;;;;;29.90;31.70;;;;;;5096495;28;19954;-61
2021/01/22 09:26:16;;;;;;;;;;;30.00;31.90;;;;;;5087091;28;19919;-64
2021/01/22 09:28:41;;;;;;;;;;;30.00;32.00;;;;;;5087183;28;19912;-64
2021/01/22 09:31:07;;;;;;;;;;;30.10;32.20;;;;;;5096356;28;19920;-62
2021/01/22 09:33:32;;;;;;;;;;;30.10;32.20;;;;;;5089515;28;19916;-66
2021/01/22 09:35:58;;;;;;;;;;;30.10;32.40;;;;;;5085704;28;19935;-67
2021/01/22 09:38:24;;;;;;;;;;;30.20;32.50;;;;;;5090328;28;19930;-57
2021/01/22 09:40:50;;;;;;;;;;;30.20;32.40;;;;;;5096508;28;19912;-56
2021/01/22 09:43:16;;;;;;;;;;;30.10;30.60;;;;;;5092284;28;19926;-54
2021/01/22 09:45:42;;;;;;;;;;;29.90;31.00;;;;;;5076148;28;20317;-60
2021/01/22 09:48:07;;;;;;;;;;;29.90;30.50;;;;;;5075953;28;19912;-55
2021/01/22 09:50:33;;;;;;;;;;;29.80;30.70;;;;;;5095958;28;19912;-55
2021/01/22 09:52:58;;;;;;;;;;;29.80;31.00;;;;;;5084440;28;19959;-62
2021/01/22 09:55:24;;;;;;;;;;;29.80;31.30;;;;;;5075789;28;19912;-61
2021/01/22 09:57:51;;;;;;;;;;;29.80;31.40;;;;;;5075490;28;20425;-63
2021/01/22 10:00:16;;;;;;;;;;;29.90;31.40;;;;;;5092495;28;20027;-69
2021/01/22 10:02:42;;;;;;;;;;;29.90;31.50;;;;;;5091767;28;19948;-66
2021/01/22 10:05:08;;;;;;;;;;;29.90;31.60;;;;;;5076947;28;19936;-60
2021/01/22 10:07:33;;;;;;;;;;;29.90;31.60;;;;;;5089180;28;20418;-59
2021/01/22 10:09:59;;;;;;;;;;;29.90;31.70;;;;;;5095694;28;20362;-60
2021/01/22 10:12:24;;;;;;;;;;;29.90;31.80;;;;;;5090428;28;19920;-63
2021/01/22 10:14:50;;;;;;;;;;;30.00;32.00;;;;;;5092139;28;20273;-65
2021/01/22 10:17:15;;;;;;;;;;;30.00;31.90;;;;;;5075422;28;20270;-63
2021/01/22 10:19:41;;;;;;;;;;;30.10;32.00;;;;;;5075166;28;19915;-64
2021/01/22 10:22:06;;;;;;;;;;;30.10;32.00;;;;;;5076071;28;20019;-61
2021/01/22 10:24:32;;;;;;;;;;;30.10;32.00;;;;;;5083301;28;20375;-64
2021/01/22 10:26:57;;;;;;;;;;;30.20;32.00;;;;;;5092736;28;19920;-65
2021/01/22 10:29:23;;;;;;;;;;;30.20;32.00;;;;;;5076008;28;19928;-61
2021/01/22 10:31:48;;;;;;;;;;;30.20;32.00;;;;;;5087014;28;19924;-64
2021/01/22 10:34:14;;;;;;;;;;;30.20;32.00;;;;;;5095003;28;20208;-64
2021/01/22 10:36:39;;;;;;;;;;;30.20;32.10;;;;;;5080099;28;19920;-68
2021/01/22 10:39:05;;;;;;;;;;;30.20;32.10;;;;;;5095061;28;19961;-61
2021/01/22 10:41:30;;;;;;;;;;;30.20;32.20;;;;;;5090861;28;19951;-60
2021/01/22 10:43:56;;;;;;;;;;;30.20;32.20;;;;;;5083170;28;20282;-57
2021/01/22 10:46:21;;;;;;;;;;;30.20;32.10;;;;;;5095161;28;19943;-65
2021/01/22 10:48:47;;;;;;;;;;;30.20;32.20;;;;;;5094816;28;19909;-60
2021/01/22 10:51:12;;;;;;;;;;;30.20;32.20;;;;;;5094870;28;20015;-68
2021/01/22 10:53:38;;;;;;;;;;;30.20;32.20;;;;;;5091459;28;19942;-64
2021/01/22 10:56:03;;;;;;;;;;;30.20;32.30;;;;;;5093573;28;20003;-68
2021/01/22 10:58:29;;;;;;;;;;;30.20;32.30;;;;;;5084301;28;20392;-64
2021/01/22 11:00:54;;;;;;;;;;;30.20;32.30;;;;;;5086680;28;20262;-65
2021/01/22 11:03:20;;;;;;;;;;;30.20;33.00;;;;;;5094873;28;19912;-66
2021/01/22 11:05:45;;;;;;;;;;;30.20;32.50;;;;;;5087494;28;19958;-60
2021/01/22 11:08:11;;;;;;;;;;;30.20;32.50;;;;;;5074167;28;19916;-61
2021/01/22 11:10:36;;;;;;;;;;;30.20;32.50;;;;;;5092874;28;19912;-64
2021/01/22 11:13:02;;;;;;;;;;;30.20;32.50;;;;;;5084408;28;20269;-67
2021/01/22 11:15:28;;;;;;;;;;;30.20;32.60;;;;;;5094364;28;19935;-65
2021/01/22 11:17:53;;;;;;;;;;;30.20;32.60;;;;;;5081033;28;20375;-60
2021/01/22 11:20:19;;;;;;;;;;;30.10;32.60;;;;;;5074778;28;19908;-60
2021/01/22 11:22:46;;;;;;;;;;;30.10;32.70;;;;;;5090315;28;19916;-68
2021/01/22 11:25:11;;;;;;;;;;;30.10;32.70;;;;;;5094045;28;19908;-63
2021/01/22 11:27:37;;;;;;;;;;;30.10;32.80;;;;;;5092568;28;19919;-63
2021/01/22 11:30:03;;;;;;;;;;;30.10;32.80;;;;;;5093871;28;19927;-61
2021/01/22 11:32:29;;;;;;;;;;;30.10;33.00;;;;;;5073833;28;20423;-64
2021/01/22 11:34:54;;;;;;;;;;;30.00;33.00;;;;;;5073950;28;19943;-61
2021/01/22 11:37:20;;;;;;;;;;;30.10;33.00;;;;;;5079141;28;20258;-59
2021/01/22 11:39:45;;;;;;;;;;;30.00;33.20;;;;;;5094114;28;19908;-61
2021/01/22 11:42:11;;;;;;;;;;;30.10;33.20;;;;;;5082726;28;19912;-62
2021/01/22 11:44:36;;;;;;;;;;;30.10;33.20;;;;;;5077227;28;19913;-56
2021/01/22 11:47:02;;;;;;;;;;;30.00;33.20;;;;;;5073375;28;20004;-51
2021/01/22 11:49:27;;;;;;;;;;;30.00;33.30;;;;;;5073510;28;19909;-54
2021/01/22 11:51:53;;;;;;;;;;;30.00;33.20;;;;;;5085044;28;20331;-60
2021/01/22 11:54:18;;;;;;;;;;;30.00;33.20;;;;;;5093663;28;19912;-58
2021/01/22 11:56:46;;;;;;;;;;;30.00;33.30;;;;;;5081274;28;20404;-56
2021/01/22 11:59:12;;;;;;;;;;;29.90;32.60;;;;;;5073515;28;19909;-59
2021/01/22 12:01:37;;;;;;;;;;;29.90;32.50;;;;;;5075776;28;20326;-67
2021/01/22 12:04:03;;;;;;;;;;;29.90;32.50;;;;;;5088833;28;19920;-65
2021/01/22 12:06:28;;;;;;;;;;;29.90;32.70;;;;;;5073298;28;20320;-65
2021/01/22 12:08:54;;;;;;;;;;;29.90;32.80;;;;;;5073590;28;19958;-62
2021/01/22 12:11:19;;;;;;;;;;;29.90;32.80;;;;;;5073302;28;19920;-60
2021/01/22 12:13:45;;;;;;;;;;;29.90;32.80;;;;;;5086108;28;19920;-62
2021/01/22 12:16:10;;;;;;;;;;;29.80;32.20;;;;;;5093429;28;20270;-61
2021/01/22 12:18:36;;;;;;;;;;;29.70;28.70;;;;;;5092997;28;19912;-60
2021/01/22 12:21:01;;;;;;;;;;;29.50;28.90;;;;;;5086568;28;19919;-60
2021/01/22 12:23:27;;;;;;;;;;;29.40;29.80;;;;;;5073206;28;20003;-64
2021/01/22 12:25:52;;;;;;;;;;;29.40;28.90;;;;;;5073124;28;19944;-66
2021/01/22 12:28:18;;;;;;;;;;;29.30;29.60;;;;;;5088671;28;19941;-64
2021/01/22 12:30:43;;;;;;;;;;;29.30;29.70;;;;;;5092798;28;19961;-68
2021/01/22 12:33:09;;;;;;;;;;;29.30;30.00;;;;;;5081150;28;19917;-66
2021/01/22 12:35:34;;;;;;;;;;;29.40;30.10;;;;;;5074044;28;19909;-63
2021/01/22 12:38:00;;;;;;;;;;;29.50;30.20;;;;;;5072522;28;19912;-66
2021/01/22 12:40:25;;;;;;;;;;;29.50;30.30;;;;;;5082033;28;19912;-65
2021/01/22 12:42:51;;;;;;;;;;;29.60;30.60;;;;;;5082979;28;19916;-55
2021/01/22 12:45:16;;;;;;;;;;;29.60;30.90;;;;;;5089712;28;19916;-64
2021/01/22 12:47:42;;;;;;;;;;;29.60;31.20;;;;;;5092974;28;19912;-59
2021/01/22 12:50:08;;;;;;;;;;;29.60;31.30;;;;;;5092869;28;20090;-61
2021/01/22 12:52:33;;;;;;;;;;;29.50;31.50;;;;;;5082257;28;19927;-56
2021/01/22 12:54:59;;;;;;;;;;;29.50;31.60;;;;;;5092088;28;19909;-59
2021/01/22 12:57:24;;;;;;;;;;;29.50;31.60;;;;;;5084691;28;19913;-63
2021/01/22 12:59:50;;;;;;;;;;;29.60;31.50;;;;;;5072634;28;20324;-54
2021/01/22 13:02:15;;;;;;;;;;;29.60;30.60;;;;;;5072329;28;19912;-51
2021/01/22 13:04:41;;;;;;;;;;;29.50;29.60;;;;;;5075327;28;19918;-53
2021/01/22 13:07:06;;;;;;;;;;;29.40;29.60;;;;;;5079815;28;19916;-63
2021/01/22 13:09:32;;;;;;;;;;;29.40;30.00;;;;;;5092598;28;19916;-61
2021/01/22 13:11:57;;;;;;;;;;;29.40;30.40;;;;;;5089700;28;20041;-61
2021/01/22 13:14:23;;;;;;;;;;;29.50;30.60;;;;;;5073710;28;19917;-62
2021/01/22 13:16:48;;;;;;;;;;;29.50;30.60;;;;;;5073241;28;19908;-60
2021/01/22 13:19:14;;;;;;;;;;;29.60;30.80;;;;;;5091878;28;19917;-64
2021/01/22 13:21:39;;;;;;;;;;;29.60;30.90;;;;;;5089111;28;19916;-64
2021/01/22 13:24:05;;;;;;;;;;;29.60;30.90;;;;;;5092720;28;19915;-62
2021/01/22 13:26:30;;;;;;;;;;;29.70;31.10;;;;;;5086166;28;19959;-65
2021/01/22 13:28:56;;;;;;;;;;;29.70;31.20;;;;;;5072279;28;19987;-61
2021/01/22 13:31:21;;;;;;;;;;;29.70;31.20;;;;;;5072256;28;20385;-61
2021/01/22 13:33:47;;;;;;;;;;;29.70;31.30;;;;;;5086425;28;19923;-61
2021/01/22 13:36:12;;;;;;;;;;;29.70;31.40;;;;;;5072417;28;19935;-58
2021/01/22 13:38:38;;;;;;;;;;;29.80;31.60;;;;;;5075573;28;20380;-61
2021/01/22 13:41:03;;;;;;;;;;;29.70;31.50;;;;;;5092606;28;20339;-60
2021/01/22 13:43:29;;;;;;;;;;;29.80;31.70;;;;;;5083951;28;19912;-48
2021/01/22 13:45:54;;;;;;;;;;;29.70;31.70;;;;;;5092314;28;19944;-51
2021/01/22 13:48:20;;;;;;;;;;;29.70;31.80;;;;;;5078740;28;19959;-60
2021/01/22 13:50:45;;;;;;;;;;;29.80;31.90;;;;;;5071946;28;20312;-57
2021/01/22 13:53:11;;;;;;;;;;;29.70;31.90;;;;;;5080188;28;19913;-51
2021/01/22 13:55:36;;;;;;;;;;;29.80;32.00;;;;;;5074693;28;19912;-61
2021/01/22 13:58:02;;;;;;;;;;;29.70;32.00;;;;;;5080837;28;19917;-64
2021/01/22 14:00:27;;;;;;;;;;;29.80;32.00;;;;;;5072370;28;20337;-62
2021/01/22 14:02:52;;;;;;;;;;;29.80;32.10;;;;;;5091621;28;19912;-53
2021/01/22 14:05:18;;;;;;;;;;;29.80;32.10;;;;;;5091792;28;20285;-55
2021/01/22 14:07:44;;;;;;;;;;;29.80;32.30;;;;;;5086755;28;19958;-56
2021/01/22 14:10:09;;;;;;;;;;;29.80;32.50;;;;;;5075342;28;19908;-64
2021/01/22 14:12:35;;;;;;;;;;;29.70;32.40;;;;;;5082951;28;19920;-50